sensor_id;sensor_type;location;lat;lon;timestamp;pressure;altitude;pressure_sealevel;temperature;humidity
27729;BME280;15126;42.186;24.340;2023-09-19T00:00:08;99721.41;;;18.06;75.31
27729;BME280;15126;42.186;24.340;2023-09-19T00:02:35;99721.25;;;18.09;76.08
27729;BME280;15126;42.186;24.340;2023-09-19T00:05:05;99719.38;;;17.97;75.72
27729;BME280;15126;42.186;24.340;2023-09-19T00:07:33;99705.59;;;17.90;76.04
27729;BME280;15126;42.186;24.340;2023-09-19T00:10:04;99713.91;;;17.94;76.46
27729;BME280;15126;42.186;24.340;2023-09-19T00:12:31;99714.38;;;17.92;77.04
27729;BME280;15126;42.186;24.340;2023-09-19T00:14:58;99721.75;;;17.99;77.28
27729;BME280;15126;42.186;24.340;2023-09-19T00:17:27;99726.28;;;17.96;76.92
27729;BME280;15126;42.186;24.340;2023-09-19T00:19:56;99721.91;;;17.95;76.26
27729;BME280;15126;42.186;24.340;2023-09-19T00:22:22;99717.19;;;17.92;76.82
27729;BME280;15126;42.186;24.340;2023-09-19T00:24:51;99718.44;;;17.91;76.79
27729;BME280;15126;42.186;24.340;2023-09-19T00:27:20;99714.50;;;17.89;76.77
27729;BME280;15126;42.186;24.340;2023-09-19T00:29:47;99716.88;;;17.81;77.48
27729;BME280;15126;42.186;24.340;2023-09-19T00:32:14;99720.78;;;17.83;77.29
27729;BME280;15126;42.186;24.340;2023-09-19T00:34:42;99712.81;;;17.82;77.05
27729;BME280;15126;42.186;24.340;2023-09-19T00:37:09;99711.72;;;17.79;77.25
27729;BME280;15126;42.186;24.340;2023-09-19T00:39:36;99710.13;;;17.78;77.14
27729;BME280;15126;42.186;24.340;2023-09-19T00:42:04;99695.09;;;17.63;77.44
27729;BME280;15126;42.186;24.340;2023-09-19T00:44:30;99702.94;;;17.68;77.42
27729;BME280;15126;42.186;24.340;2023-09-19T00:47:00;99717.50;;;17.67;78.18
27729;BME280;15126;42.186;24.340;2023-09-19T00:49:28;99699.47;;;17.64;77.85
27729;BME280;15126;42.186;24.340;2023-09-19T00:51:57;99692.72;;;17.53;78.26
27729;BME280;15126;42.186;24.340;2023-09-19T00:54:25;99705.75;;;17.59;78.05
27729;BME280;15126;42.186;24.340;2023-09-19T00:56:53;99695.69;;;17.49;78.32
27729;BME280;15126;42.186;24.340;2023-09-19T00:59:20;99699.13;;;17.44;78.56
27729;BME280;15126;42.186;24.340;2023-09-19T01:01:48;99707.25;;;17.51;78.19
27729;BME280;15126;42.186;24.340;2023-09-19T01:04:19;99672.59;;;17.23;78.67
27729;BME280;15126;42.186;24.340;2023-09-19T01:06:46;99700.50;;;17.40;79.10
27729;BME280;15126;42.186;24.340;2023-09-19T01:09:19;99703.50;;;17.36;79.45
27729;BME280;15126;42.186;24.340;2023-09-19T01:11:48;99704.56;;;17.30;79.35
27729;BME280;15126;42.186;24.340;2023-09-19T01:14:25;99689.22;;;17.21;79.09
27729;BME280;15126;42.186;24.340;2023-09-19T01:17:02;99703.31;;;17.21;79.17
27729;BME280;15126;42.186;24.340;2023-09-19T01:22:42;99693.56;;;17.13;79.03
27729;BME280;15126;42.186;24.340;2023-09-19T01:25:40;99688.56;;;17.08;79.01
27729;BME280;15126;42.186;24.340;2023-09-19T01:31:10;99680.50;;;16.89;78.36
27729;BME280;15126;42.186;24.340;2023-09-19T01:33:57;99697.75;;;17.00;78.76
27729;BME280;15126;42.186;24.340;2023-09-19T01:36:31;99694.47;;;17.01;78.59
27729;BME280;15126;42.186;24.340;2023-09-19T01:39:02;99685.16;;;16.83;78.82
27729;BME280;15126;42.186;24.340;2023-09-19T01:41:48;99687.72;;;16.90;78.69
27729;BME280;15126;42.186;24.340;2023-09-19T01:44:24;99683.94;;;16.84;79.15
27729;BME280;15126;42.186;24.340;2023-09-19T01:46:58;99692.69;;;16.86;79.04
27729;BME280;15126;42.186;24.340;2023-09-19T01:49:32;99687.38;;;16.79;79.07
27729;BME280;15126;42.186;24.340;2023-09-19T01:52:04;99680.47;;;16.80;78.71
27729;BME280;15126;42.186;24.340;2023-09-19T01:54:40;99684.88;;;16.81;78.53
27729;BME280;15126;42.186;24.340;2023-09-19T01:57:14;99687.06;;;16.77;79.20
27729;BME280;15126;42.186;24.340;2023-09-19T01:59:47;99671.81;;;16.65;79.03
27729;BME280;15126;42.186;24.340;2023-09-19T02:02:18;99678.88;;;16.70;78.98
27729;BME280;15126;42.186;24.340;2023-09-19T02:04:48;99676.53;;;16.68;79.17
27729;BME280;15126;42.186;24.340;2023-09-19T02:07:16;99676.97;;;16.66;79.14
27729;BME280;15126;42.186;24.340;2023-09-19T02:09:43;99676.66;;;16.64;79.00
27729;BME280;15126;42.186;24.340;2023-09-19T02:12:10;99671.31;;;16.57;78.73
27729;BME280;15126;42.186;24.340;2023-09-19T02:14:36;99679.47;;;16.64;78.92
27729;BME280;15126;42.186;24.340;2023-09-19T02:17:07;99672.59;;;16.65;78.79
27729;BME280;15126;42.186;24.340;2023-09-19T02:19:38;99678.38;;;16.62;78.91
27729;BME280;15126;42.186;24.340;2023-09-19T02:22:07;99677.97;;;16.51;79.21
27729;BME280;15126;42.186;24.340;2023-09-19T02:24:36;99679.91;;;16.54;78.84
27729;BME280;15126;42.186;24.340;2023-09-19T02:27:03;99671.56;;;16.50;78.89
27729;BME280;15126;42.186;24.340;2023-09-19T02:29:31;99681.13;;;16.53;79.28
27729;BME280;15126;42.186;24.340;2023-09-19T02:32:00;99672.03;;;16.49;79.09
27729;BME280;15126;42.186;24.340;2023-09-19T02:34:28;99669.03;;;16.43;79.58
27729;BME280;15126;42.186;24.340;2023-09-19T02:36:56;99674.34;;;16.41;80.12
27729;BME280;15126;42.186;24.340;2023-09-19T02:39:23;99669.03;;;16.43;79.96
27729;BME280;15126;42.186;24.340;2023-09-19T02:41:50;99665.25;;;16.37;79.85
27729;BME280;15126;42.186;24.340;2023-09-19T02:44:17;99671.78;;;16.34;79.95
27729;BME280;15126;42.186;24.340;2023-09-19T02:46:45;99657.53;;;16.29;80.53
27729;BME280;15126;42.186;24.340;2023-09-19T02:49:13;99640.75;;;16.16;80.82
27729;BME280;15126;42.186;24.340;2023-09-19T02:51:40;99676.13;;;16.26;80.79
27729;BME280;15126;42.186;24.340;2023-09-19T02:54:08;99678.34;;;16.31;81.38
27729;BME280;15126;42.186;24.340;2023-09-19T02:56:35;99675.41;;;16.35;80.59
27729;BME280;15126;42.186;24.340;2023-09-19T02:59:05;99666.75;;;16.29;81.03
27729;BME280;15126;42.186;24.340;2023-09-19T03:01:32;99673.69;;;16.37;80.84
27729;BME280;15126;42.186;24.340;2023-09-19T03:03:59;99661.94;;;16.30;80.90
27729;BME280;15126;42.186;24.340;2023-09-19T03:06:26;99660.81;;;16.27;80.78
27729;BME280;15126;42.186;24.340;2023-09-19T03:08:56;99668.84;;;16.38;80.51
27729;BME280;15126;42.186;24.340;2023-09-19T03:11:26;99666.47;;;16.36;80.36
27729;BME280;15126;42.186;24.340;2023-09-19T03:13:54;99661.00;;;16.33;80.56
27729;BME280;15126;42.186;24.340;2023-09-19T03:16:21;99661.94;;;16.30;81.33
27729;BME280;15126;42.186;24.340;2023-09-19T03:18:48;99662.72;;;16.30;81.12
27729;BME280;15126;42.186;24.340;2023-09-19T03:21:15;99652.50;;;16.24;81.31
27729;BME280;15126;42.186;24.340;2023-09-19T03:23:42;99659.56;;;16.28;81.12
27729;BME280;15126;42.186;24.340;2023-09-19T03:26:11;99665.19;;;16.28;80.97
27729;BME280;15126;42.186;24.340;2023-09-19T03:28:41;99660.63;;;16.22;80.54
27729;BME280;15126;42.186;24.340;2023-09-19T03:31:08;99648.19;;;16.10;81.32
27729;BME280;15126;42.186;24.340;2023-09-19T03:33:36;99661.53;;;16.19;80.56
27729;BME280;15126;42.186;24.340;2023-09-19T03:36:03;99663.25;;;16.16;81.32
27729;BME280;15126;42.186;24.340;2023-09-19T03:38:32;99659.00;;;16.12;81.37
27729;BME280;15126;42.186;24.340;2023-09-19T03:41:04;99657.75;;;16.13;81.15
27729;BME280;15126;42.186;24.340;2023-09-19T03:43:32;99658.22;;;16.11;80.79
27729;BME280;15126;42.186;24.340;2023-09-19T03:46:02;99657.25;;;16.05;81.63
27729;BME280;15126;42.186;24.340;2023-09-19T03:48:30;99662.88;;;16.05;81.64
27729;BME280;15126;42.186;24.340;2023-09-19T03:50:59;99662.88;;;16.05;81.48
27729;BME280;15126;42.186;24.340;2023-09-19T03:53:28;99676.63;;;16.03;81.20
27729;BME280;15126;42.186;24.340;2023-09-19T03:55:55;99664.69;;;15.99;81.83
27729;BME280;15126;42.186;24.340;2023-09-19T03:58:23;99655.56;;;15.86;82.10
27729;BME280;15126;42.186;24.340;2023-09-19T04:00:50;99669.69;;;15.95;82.17
27729;BME280;15126;42.186;24.340;2023-09-19T04:03:18;99666.00;;;15.85;82.33
27729;BME280;15126;42.186;24.340;2023-09-19T04:05:46;99679.84;;;15.92;82.61
27729;BME280;15126;42.186;24.340;2023-09-19T04:08:31;99673.72;;;15.94;82.21
27729;BME280;15126;42.186;24.340;2023-09-19T04:11:15;99685.00;;;15.94;82.69
27729;BME280;15126;42.186;24.340;2023-09-19T04:13:41;99680.28;;;15.91;82.90
27729;BME280;15126;42.186;24.340;2023-09-19T04:16:08;99681.84;;;15.92;83.61
27729;BME280;15126;42.186;24.340;2023-09-19T04:18:37;99677.03;;;15.92;83.72
27729;BME280;15126;42.186;24.340;2023-09-19T04:21:05;99674.00;;;15.87;83.46
27729;BME280;15126;42.186;24.340;2023-09-19T04:23:34;99677.34;;;15.94;83.41
27729;BME280;15126;42.186;24.340;2023-09-19T04:26:01;99679.03;;;15.92;83.55
27729;BME280;15126;42.186;24.340;2023-09-19T04:28:29;99680.47;;;15.96;84.02
27729;BME280;15126;42.186;24.340;2023-09-19T04:30:56;99662.16;;;15.92;83.54
27729;BME280;15126;42.186;24.340;2023-09-19T04:33:26;99664.47;;;15.84;83.84
27729;BME280;15126;42.186;24.340;2023-09-19T04:35:55;99666.88;;;15.95;83.87
27729;BME280;15126;42.186;24.340;2023-09-19T04:38:22;99674.91;;;16.05;84.30
27729;BME280;15126;42.186;24.340;2023-09-19T04:40:50;99674.44;;;16.07;83.89
27729;BME280;15126;42.186;24.340;2023-09-19T04:43:18;99670.72;;;16.10;84.07
27729;BME280;15126;42.186;24.340;2023-09-19T04:45:47;99674.19;;;16.14;84.14
27729;BME280;15126;42.186;24.340;2023-09-19T04:48:14;99668.28;;;16.21;83.71
27729;BME280;15126;42.186;24.340;2023-09-19T04:50:41;99680.53;;;16.27;83.50
27729;BME280;15126;42.186;24.340;2023-09-19T04:53:10;99642.09;;;16.12;82.86
27729;BME280;15126;42.186;24.340;2023-09-19T04:55:39;99676.19;;;16.35;82.07
27729;BME280;15126;42.186;24.340;2023-09-19T04:58:06;99671.84;;;16.43;82.01
27729;BME280;15126;42.186;24.340;2023-09-19T05:00:33;99667.19;;;16.49;81.41
27729;BME280;15126;42.186;24.340;2023-09-19T05:03:00;99677.97;;;16.51;81.48
27729;BME280;15126;42.186;24.340;2023-09-19T05:05:29;99679.16;;;16.62;81.38
27729;BME280;15126;42.186;24.340;2023-09-19T05:07:56;99679.38;;;16.77;81.11
27729;BME280;15126;42.186;24.340;2023-09-19T05:10:26;99680.50;;;16.89;81.03
27729;BME280;15126;42.186;24.340;2023-09-19T05:12:53;99677.72;;;16.98;81.13
27729;BME280;15126;42.186;24.340;2023-09-19T05:15:22;99681.19;;;17.11;81.01
27729;BME280;15126;42.186;24.340;2023-09-19T05:17:49;99690.63;;;17.17;80.55
27729;BME280;15126;42.186;24.340;2023-09-19T05:20:17;99681.53;;;17.22;78.54
27729;BME280;15126;42.186;24.340;2023-09-19T05:22:50;99677.16;;;17.30;78.34
27729;BME280;15126;42.186;24.340;2023-09-19T05:25:17;99690.03;;;17.40;78.20
27729;BME280;15126;42.186;24.340;2023-09-19T05:27:45;99683.91;;;17.51;77.46
27729;BME280;15126;42.186;24.340;2023-09-19T05:30:12;99685.69;;;17.57;77.68
27729;BME280;15126;42.186;24.340;2023-09-19T05:32:41;99685.22;;;17.68;76.79
27729;BME280;15126;42.186;24.340;2023-09-19T05:35:09;99677.66;;;17.47;76.46
27729;BME280;15126;42.186;24.340;2023-09-19T05:37:38;99683.47;;;17.52;77.30
27729;BME280;15126;42.186;24.340;2023-09-19T05:40:06;99683.50;;;17.70;77.56
27729;BME280;15126;42.186;24.340;2023-09-19T05:42:35;99685.69;;;17.75;76.95
27729;BME280;15126;42.186;24.340;2023-09-19T05:45:06;99674.69;;;17.77;76.41
27729;BME280;15126;42.186;24.340;2023-09-19T05:47:33;99678.00;;;17.85;75.95
27729;BME280;15126;42.186;24.340;2023-09-19T05:49:59;99677.69;;;17.92;75.98
27729;BME280;15126;42.186;24.340;2023-09-19T05:52:26;99675.91;;;18.13;76.38
27729;BME280;15126;42.186;24.340;2023-09-19T05:54:53;99673.84;;;18.31;75.75
27729;BME280;15126;42.186;24.340;2023-09-19T05:57:22;99671.78;;;18.50;76.25
27729;BME280;15126;42.186;24.340;2023-09-19T05:59:52;99637.06;;;18.59;75.12
27729;BME280;15126;42.186;24.340;2023-09-19T06:02:20;99660.00;;;18.84;74.67
27729;BME280;15126;42.186;24.340;2023-09-19T06:04:47;99658.41;;;18.92;71.89
27729;BME280;15126;42.186;24.340;2023-09-19T06:07:14;99652.03;;;19.07;72.37
27729;BME280;15126;42.186;24.340;2023-09-19T06:09:42;99665.28;;;19.24;72.47
27729;BME280;15126;42.186;24.340;2023-09-19T06:12:09;99669.00;;;19.39;71.01
27729;BME280;15126;42.186;24.340;2023-09-19T06:14:39;99660.63;;;19.45;69.90
27729;BME280;15126;42.186;24.340;2023-09-19T06:17:06;99661.69;;;19.47;70.12
27729;BME280;15126;42.186;24.340;2023-09-19T06:19:35;99660.19;;;19.61;70.41
27729;BME280;15126;42.186;24.340;2023-09-19T06:22:01;99654.81;;;19.63;71.34
27729;BME280;15126;42.186;24.340;2023-09-19T06:24:29;99655.25;;;19.85;70.54
27729;BME280;15126;42.186;24.340;2023-09-19T06:26:56;99651.38;;;19.97;69.53
27729;BME280;15126;42.186;24.340;2023-09-19T06:29:23;99646.88;;;20.05;70.27
27729;BME280;15126;42.186;24.340;2023-09-19T06:31:50;99643.56;;;20.22;70.31
27729;BME280;15126;42.186;24.340;2023-09-19T06:34:17;99648.75;;;20.38;69.68
27729;BME280;15126;42.186;24.340;2023-09-19T06:36:45;99642.59;;;20.54;70.30
27729;BME280;15126;42.186;24.340;2023-09-19T06:39:12;99645.38;;;20.68;69.24
27729;BME280;15126;42.186;24.340;2023-09-19T06:41:39;99637.03;;;20.79;68.70
27729;BME280;15126;42.186;24.340;2023-09-19T06:44:07;99642.88;;;20.91;67.23
27729;BME280;15126;42.186;24.340;2023-09-19T06:46:35;99638.66;;;21.01;65.24
27729;BME280;15126;42.186;24.340;2023-09-19T06:49:05;99631.69;;;21.02;65.70
27729;BME280;15126;42.186;24.340;2023-09-19T06:51:32;99640.97;;;21.17;65.78
27729;BME280;15126;42.186;24.340;2023-09-19T06:54:01;99636.66;;;21.21;65.97
27729;BME280;15126;42.186;24.340;2023-09-19T06:56:30;99640.34;;;21.27;65.77
27729;BME280;15126;42.186;24.340;2023-09-19T06:58:58;99646.16;;;21.39;64.88
27729;BME280;15126;42.186;24.340;2023-09-19T07:01:27;99626.06;;;21.42;63.64
27729;BME280;15126;42.186;24.340;2023-09-19T07:03:54;99640.31;;;21.48;63.11
27729;BME280;15126;42.186;24.340;2023-09-19T07:06:21;99623.59;;;21.50;64.46
27729;BME280;15126;42.186;24.340;2023-09-19T07:08:51;99610.88;;;21.45;62.14
27729;BME280;15126;42.186;24.340;2023-09-19T07:11:19;99639.25;;;21.65;62.26
27729;BME280;15126;42.186;24.340;2023-09-19T07:13:47;99620.09;;;21.60;62.45
27729;BME280;15126;42.186;24.340;2023-09-19T07:16:13;99621.09;;;21.57;62.85
27729;BME280;15126;42.186;24.340;2023-09-19T07:18:52;99631.34;;;21.75;63.76
27729;BME280;15126;42.186;24.340;2023-09-19T07:21:20;99635.63;;;21.85;63.57
27729;BME280;15126;42.186;24.340;2023-09-19T07:23:47;99638.75;;;21.87;63.41
27729;BME280;15126;42.186;24.340;2023-09-19T07:26:15;99636.19;;;21.89;63.91
27729;BME280;15126;42.186;24.340;2023-09-19T07:28:43;99635.03;;;22.01;62.87
27729;BME280;15126;42.186;24.340;2023-09-19T07:31:12;99595.63;;;21.88;63.74
27729;BME280;15126;42.186;24.340;2023-09-19T07:33:40;99625.66;;;22.21;64.25
27729;BME280;15126;42.186;24.340;2023-09-19T07:36:09;99611.47;;;22.26;63.00
27729;BME280;15126;42.186;24.340;2023-09-19T07:38:39;99623.78;;;22.43;63.15
27729;BME280;15126;42.186;24.340;2023-09-19T07:41:06;99615.06;;;22.52;62.12
27729;BME280;15126;42.186;24.340;2023-09-19T07:43:34;99617.72;;;22.62;62.20
27729;BME280;15126;42.186;24.340;2023-09-19T07:46:06;99604.47;;;22.53;59.38
27729;BME280;15126;42.186;24.340;2023-09-19T07:48:34;99599.66;;;22.65;60.54
27729;BME280;15126;42.186;24.340;2023-09-19T07:51:03;99599.94;;;22.67;61.68
27729;BME280;15126;42.186;24.340;2023-09-19T07:53:30;99594.03;;;22.70;62.52
27729;BME280;15126;42.186;24.340;2023-09-19T07:56:04;99598.78;;;22.84;61.05
27729;BME280;15126;42.186;24.340;2023-09-19T07:58:31;99590.97;;;22.79;60.31
27729;BME280;15126;42.186;24.340;2023-09-19T08:01:02;99597.53;;;22.91;60.14
27729;BME280;15126;42.186;24.340;2023-09-19T08:03:31;99593.59;;;22.88;60.08
27729;BME280;15126;42.186;24.340;2023-09-19T08:05:57;99578.03;;;22.78;59.27
27729;BME280;15126;42.186;24.340;2023-09-19T08:08:24;99591.78;;;22.80;60.57
27729;BME280;15126;42.186;24.340;2023-09-19T08:10:53;99596.38;;;22.72;60.61
27729;BME280;15126;42.186;24.340;2023-09-19T08:13:25;99571.00;;;22.68;61.17
27729;BME280;15126;42.186;24.340;2023-09-19T08:15:52;99581.75;;;22.90;61.04
27729;BME280;15126;42.186;24.340;2023-09-19T08:18:19;99585.44;;;23.01;60.40
27729;BME280;15126;42.186;24.340;2023-09-19T08:20:52;99578.97;;;23.06;60.52
27729;BME280;15126;42.186;24.340;2023-09-19T08:23:19;99582.94;;;23.20;57.45
27729;BME280;15126;42.186;24.340;2023-09-19T08:25:47;99582.69;;;23.24;58.21
27729;BME280;15126;42.186;24.340;2023-09-19T08:28:13;99573.88;;;23.27;58.10
27729;BME280;15126;42.186;24.340;2023-09-19T08:30:45;99574.16;;;23.29;58.13
27729;BME280;15126;42.186;24.340;2023-09-19T08:33:12;99568.75;;;23.31;59.12
27729;BME280;15126;42.186;24.340;2023-09-19T08:35:40;99566.94;;;23.34;58.96
27729;BME280;15126;42.186;24.340;2023-09-19T08:38:11;99572.69;;;23.45;59.27
27729;BME280;15126;42.186;24.340;2023-09-19T08:40:39;99568.53;;;23.46;58.45
27729;BME280;15126;42.186;24.340;2023-09-19T08:43:09;99562.59;;;23.49;59.38
27729;BME280;15126;42.186;24.340;2023-09-19T08:45:36;99575.31;;;23.59;58.94
27729;BME280;15126;42.186;24.340;2023-09-19T08:48:17;99579.47;;;23.58;57.52
27729;BME280;15126;42.186;24.340;2023-09-19T08:50:50;99562.66;;;23.66;57.35
27729;BME280;15126;42.186;24.340;2023-09-19T08:53:28;99563.97;;;23.82;56.51
27729;BME280;15126;42.186;24.340;2023-09-19T08:56:01;99562.16;;;23.95;55.47
27729;BME280;15126;42.186;24.340;2023-09-19T08:58:38;99550.03;;;24.11;56.19
27729;BME280;15126;42.186;24.340;2023-09-19T09:01:07;99550.28;;;24.13;55.44
27729;BME280;15126;42.186;24.340;2023-09-19T09:03:37;99534.75;;;24.14;54.85
27729;BME280;15126;42.186;24.340;2023-09-19T09:06:06;99532.66;;;23.98;54.85
27729;BME280;15126;42.186;24.340;2023-09-19T09:08:38;99529.78;;;23.87;56.23
27729;BME280;15126;42.186;24.340;2023-09-19T09:11:07;99529.81;;;24.04;56.67
27729;BME280;15126;42.186;24.340;2023-09-19T09:13:35;99522.31;;;24.12;55.73
27729;BME280;15126;42.186;24.340;2023-09-19T09:16:03;99521.53;;;24.22;56.18
27729;BME280;15126;42.186;24.340;2023-09-19T09:18:29;99523.06;;;24.35;56.21
27729;BME280;15126;42.186;24.340;2023-09-19T09:20:56;99520.75;;;24.27;54.87
27729;BME280;15126;42.186;24.340;2023-09-19T09:23:23;99510.38;;;24.30;54.38
27729;BME280;15126;42.186;24.340;2023-09-19T09:25:53;99519.13;;;24.54;56.03
27729;BME280;15126;42.186;24.340;2023-09-19T09:28:25;99522.25;;;24.67;53.56
27729;BME280;15126;42.186;24.340;2023-09-19T09:30:55;99500.25;;;24.46;53.55
27729;BME280;15126;42.186;24.340;2023-09-19T09:33:24;99517.28;;;24.62;54.09
27729;BME280;15126;42.186;24.340;2023-09-19T09:35:52;99514.22;;;24.49;52.33
27729;BME280;15126;42.186;24.340;2023-09-19T09:38:25;99519.38;;;24.67;54.14
27729;BME280;15126;42.186;24.340;2023-09-19T09:41:00;99512.34;;;24.74;53.37
27729;BME280;15126;42.186;24.340;2023-09-19T09:43:33;99507.97;;;24.73;53.78
27729;BME280;15126;42.186;24.340;2023-09-19T09:46:13;99499.41;;;24.73;52.10
27729;BME280;15126;42.186;24.340;2023-09-19T09:49:01;99500.94;;;24.85;53.67
27729;BME280;15126;42.186;24.340;2023-09-19T09:52:05;99483.03;;;24.73;50.45
27729;BME280;15126;42.186;24.340;2023-09-19T09:54:36;99503.28;;;24.75;50.51
27729;BME280;15126;42.186;24.340;2023-09-19T09:57:05;99502.75;;;24.82;50.96
27729;BME280;15126;42.186;24.340;2023-09-19T09:59:49;99499.88;;;24.88;50.64
27729;BME280;15126;42.186;24.340;2023-09-19T10:02:17;99494.69;;;24.92;51.71
27729;BME280;15126;42.186;24.340;2023-09-19T10:04:51;99495.69;;;25.00;51.10
27729;BME280;15126;42.186;24.340;2023-09-19T10:07:25;99502.13;;;25.06;50.67
27729;BME280;15126;42.186;24.340;2023-09-19T10:10:01;99483.50;;;25.00;52.13
27729;BME280;15126;42.186;24.340;2023-09-19T10:12:43;99462.75;;;24.94;51.19
27729;BME280;15126;42.186;24.340;2023-09-19T10:15:11;99483.13;;;25.20;51.88
27729;BME280;15126;42.186;24.340;2023-09-19T10:17:43;99475.84;;;25.24;52.40
27729;BME280;15126;42.186;24.340;2023-09-19T10:20:14;99480.75;;;25.29;52.59
27729;BME280;15126;42.186;24.340;2023-09-19T10:22:53;99474.44;;;25.42;51.79
27729;BME280;15126;42.186;24.340;2023-09-19T10:25:25;99473.59;;;25.53;51.50
27729;BME280;15126;42.186;24.340;2023-09-19T10:27:56;99469.34;;;25.70;52.73
27729;BME280;15126;42.186;24.340;2023-09-19T10:30:31;99448.28;;;25.73;52.21
27729;BME280;15126;42.186;24.340;2023-09-19T10:33:06;99448.84;;;25.96;52.08
27729;BME280;15126;42.186;24.340;2023-09-19T10:35:33;99452.19;;;26.00;50.24
27729;BME280;15126;42.186;24.340;2023-09-19T10:38:06;99450.06;;;26.06;50.75
27729;BME280;15126;42.186;24.340;2023-09-19T10:40:35;99445.88;;;26.07;51.45
27729;BME280;15126;42.186;24.340;2023-09-19T10:43:11;99425.06;;;26.07;52.02
27729;BME280;15126;42.186;24.340;2023-09-19T10:45:38;99436.44;;;26.18;51.35
27729;BME280;15126;42.186;24.340;2023-09-19T10:48:13;99441.81;;;26.27;51.52
27729;BME280;15126;42.186;24.340;2023-09-19T10:50:45;99433.19;;;26.32;53.01
27729;BME280;15126;42.186;24.340;2023-09-19T10:53:17;99446.13;;;26.39;51.18
27729;BME280;15126;42.186;24.340;2023-09-19T10:55:50;99428.94;;;26.39;51.04
27729;BME280;15126;42.186;24.340;2023-09-19T10:58:29;99435.13;;;26.43;50.30
27729;BME280;15126;42.186;24.340;2023-09-19T11:00:59;99431.19;;;26.46;48.59
27729;BME280;15126;42.186;24.340;2023-09-19T11:03:41;99399.53;;;26.20;46.78
27729;BME280;15126;42.186;24.340;2023-09-19T11:06:20;99396.22;;;26.34;48.66
27729;BME280;15126;42.186;24.340;2023-09-19T11:09:05;99405.91;;;26.50;49.97
27729;BME280;15126;42.186;24.340;2023-09-19T11:11:51;99406.94;;;26.52;51.10
27729;BME280;15126;42.186;24.340;2023-09-19T11:14:40;99410.75;;;26.60;49.24
27729;BME280;15126;42.186;24.340;2023-09-19T11:20:23;99396.81;;;26.70;49.89
27729;BME280;15126;42.186;24.340;2023-09-19T11:23:21;99386.44;;;26.67;50.61
27729;BME280;15126;42.186;24.340;2023-09-19T11:25:59;99394.41;;;26.80;47.45
27729;BME280;15126;42.186;24.340;2023-09-19T11:28:33;99380.88;;;26.56;48.77
27729;BME280;15126;42.186;24.340;2023-09-19T11:34:44;99394.59;;;26.63;46.20
27729;BME280;15126;42.186;24.340;2023-09-19T11:40:44;99382.72;;;26.53;46.88
27729;BME280;15126;42.186;24.340;2023-09-19T11:43:30;99371.84;;;26.52;45.88
27729;BME280;15126;42.186;24.340;2023-09-19T11:46:07;99374.06;;;26.59;48.02
27729;BME280;15126;42.186;24.340;2023-09-19T11:48:39;99368.41;;;26.53;46.47
27729;BME280;15126;42.186;24.340;2023-09-19T11:51:14;99342.34;;;26.38;46.00
27729;BME280;15126;42.186;24.340;2023-09-19T11:53:50;99363.00;;;26.50;46.25
27729;BME280;15126;42.186;24.340;2023-09-19T11:56:18;99320.75;;;26.19;45.46
27729;BME280;15126;42.186;24.340;2023-09-19T11:58:49;99340.88;;;26.32;45.43
27729;BME280;15126;42.186;24.340;2023-09-19T12:01:26;99282.69;;;26.05;46.63
27729;BME280;15126;42.186;24.340;2023-09-19T12:03:57;99346.94;;;26.47;46.97
27729;BME280;15126;42.186;24.340;2023-09-19T12:06:25;99349.63;;;26.58;46.84
27729;BME280;15126;42.186;24.340;2023-09-19T12:08:52;99326.66;;;26.45;45.60
27729;BME280;15126;42.186;24.340;2023-09-19T12:11:21;99346.16;;;26.65;46.84
27729;BME280;15126;42.186;24.340;2023-09-19T12:13:50;99341.16;;;26.71;45.65
27729;BME280;15126;42.186;24.340;2023-09-19T12:16:20;99332.16;;;26.61;46.13
27729;BME280;15126;42.186;24.340;2023-09-19T12:18:51;99335.16;;;26.69;47.31
27729;BME280;15126;42.186;24.340;2023-09-19T12:21:27;99329.63;;;26.77;46.78
27729;BME280;15126;42.186;24.340;2023-09-19T12:24:04;99325.94;;;26.82;46.56
27729;BME280;15126;42.186;24.340;2023-09-19T12:26:41;99318.13;;;26.82;46.85
27729;BME280;15126;42.186;24.340;2023-09-19T12:29:13;99314.84;;;26.91;45.40
27729;BME280;15126;42.186;24.340;2023-09-19T12:31:48;99313.84;;;26.89;45.42
27729;BME280;15126;42.186;24.340;2023-09-19T12:34:19;99319.41;;;27.00;46.89
27729;BME280;15126;42.186;24.340;2023-09-19T12:36:46;99327.03;;;27.10;45.93
27729;BME280;15126;42.186;24.340;2023-09-19T12:39:23;99317.91;;;27.12;46.29
27729;BME280;15126;42.186;24.340;2023-09-19T12:41:51;99304.63;;;26.96;44.86
27729;BME280;15126;42.186;24.340;2023-09-19T12:44:21;99315.44;;;27.03;45.66
27729;BME280;15126;42.186;24.340;2023-09-19T12:46:53;99317.38;;;27.13;45.38
27729;BME280;15126;42.186;24.340;2023-09-19T12:49:26;99311.41;;;27.11;43.91
27729;BME280;15126;42.186;24.340;2023-09-19T12:51:55;99282.03;;;26.92;43.78
27729;BME280;15126;42.186;24.340;2023-09-19T12:54:24;99303.22;;;27.02;44.24
27729;BME280;15126;42.186;24.340;2023-09-19T12:56:51;99300.75;;;26.93;44.26
27729;BME280;15126;42.186;24.340;2023-09-19T12:59:31;99276.94;;;26.85;45.24
27729;BME280;15126;42.186;24.340;2023-09-19T13:02:06;99274.63;;;26.84;45.85
27729;BME280;15126;42.186;24.340;2023-09-19T13:04:43;99297.22;;;26.87;44.92
27729;BME280;15126;42.186;24.340;2023-09-19T13:07:42;99282.00;;;26.79;46.17
27729;BME280;15126;42.186;24.340;2023-09-19T13:10:14;99295.66;;;26.86;44.93
27729;BME280;15126;42.186;24.340;2023-09-19T13:12:43;99243.13;;;26.65;45.97
27729;BME280;15126;42.186;24.340;2023-09-19T13:15:14;99266.81;;;26.84;42.76
27729;BME280;15126;42.186;24.340;2023-09-19T13:17:49;99208.19;;;26.53;44.70
27729;BME280;15126;42.186;24.340;2023-09-19T13:20:24;99266.84;;;26.97;44.17
27729;BME280;15126;42.186;24.340;2023-09-19T13:22:55;99254.31;;;27.00;45.02